sensor_id;sensor_type;location;lat;lon;timestamp;temperature;humidity
52321;DHT22;38261;54.090;13.382;2023-04-24T00:00:42;9.30;99.90
52321;DHT22;38261;54.090;13.382;2023-04-24T00:02:06;9.30;99.90
52321;DHT22;38261;54.090;13.382;2023-04-24T00:03:31;9.40;99.90
52321;DHT22;38261;54.090;13.382;2023-04-24T00:04:55;9.40;99.90
52321;DHT22;38261;54.090;13.382;2023-04-24T00:06:17;9.40;99.90
52321;DHT22;38261;54.090;13.382;2023-04-24T00:07:40;9.40;99.90
52321;DHT22;38261;54.090;13.382;2023-04-24T00:09:05;9.50;99.90
52321;DHT22;38261;54.090;13.382;2023-04-24T00:10:27;9.50;99.90
52321;DHT22;38261;54.090;13.382;2023-04-24T00:11:49;9.50;99.90
52321;DHT22;38261;54.090;13.382;2023-04-24T00:13:12;9.50;99.90
52321;DHT22;38261;54.090;13.382;2023-04-24T00:14:34;9.50;99.90
52321;DHT22;38261;54.090;13.382;2023-04-24T00:15:56;9.40;99.90
52321;DHT22;38261;54.090;13.382;2023-04-24T00:17:19;9.40;99.90
52321;DHT22;38261;54.090;13.382;2023-04-24T00:18:44;9.40;99.90
52321;DHT22;38261;54.090;13.382;2023-04-24T00:20:07;9.40;99.90
52321;DHT22;38261;54.090;13.382;2023-04-24T00:21:29;9.40;99.90
52321;DHT22;38261;54.090;13.382;2023-04-24T00:22:51;9.40;99.90
52321;DHT22;38261;54.090;13.382;2023-04-24T00:24:13;9.40;99.90
52321;DHT22;38261;54.090;13.382;2023-04-24T00:25:35;9.40;99.90
52321;DHT22;38261;54.090;13.382;2023-04-24T00:26:58;9.30;99.90
52321;DHT22;38261;54.090;13.382;2023-04-24T00:28:20;9.30;99.90
52321;DHT22;38261;54.090;13.382;2023-04-24T00:29:42;9.30;99.90
52321;DHT22;38261;54.090;13.382;2023-04-24T00:31:04;9.30;99.90
52321;DHT22;38261;54.090;13.382;2023-04-24T00:32:26;9.30;99.90
52321;DHT22;38261;54.090;13.382;2023-04-24T00:33:48;9.30;99.90
52321;DHT22;38261;54.090;13.382;2023-04-24T00:35:11;9.30;99.90
52321;DHT22;38261;54.090;13.382;2023-04-24T00:36:33;9.30;99.90
52321;DHT22;38261;54.090;13.382;2023-04-24T00:37:55;9.30;99.90
52321;DHT22;38261;54.090;13.382;2023-04-24T00:39:18;9.30;99.90
52321;DHT22;38261;54.090;13.382;2023-04-24T00:40:40;9.30;99.90
52321;DHT22;38261;54.090;13.382;2023-04-24T00:42:02;9.30;99.90
52321;DHT22;38261;54.090;13.382;2023-04-24T00:43:24;9.30;99.90
52321;DHT22;38261;54.090;13.382;2023-04-24T00:44:47;9.30;99.90
52321;DHT22;38261;54.090;13.382;2023-04-24T00:46:09;9.30;99.90
52321;DHT22;38261;54.090;13.382;2023-04-24T00:47:33;9.30;99.90
52321;DHT22;38261;54.090;13.382;2023-04-24T00:48:56;9.30;99.90
52321;DHT22;38261;54.090;13.382;2023-04-24T00:50:18;9.30;99.90
52321;DHT22;38261;54.090;13.382;2023-04-24T00:51:41;9.30;99.90
52321;DHT22;38261;54.090;13.382;2023-04-24T00:53:07;9.30;99.90
52321;DHT22;38261;54.090;13.382;2023-04-24T00:54:29;9.30;99.90
52321;DHT22;38261;54.090;13.382;2023-04-24T00:55:51;9.30;99.90
52321;DHT22;38261;54.090;13.382;2023-04-24T00:57:14;9.30;99.90
52321;DHT22;38261;54.090;13.382;2023-04-24T00:58:37;9.30;99.90
52321;DHT22;38261;54.090;13.382;2023-04-24T00:59:59;9.30;99.90
52321;DHT22;38261;54.090;13.382;2023-04-24T01:01:22;9.30;99.90
52321;DHT22;38261;54.090;13.382;2023-04-24T01:02:44;9.30;99.90
52321;DHT22;38261;54.090;13.382;2023-04-24T01:04:09;9.30;99.90
52321;DHT22;38261;54.090;13.382;2023-04-24T01:05:32;9.30;99.90
52321;DHT22;38261;54.090;13.382;2023-04-24T01:06:55;9.30;99.90
52321;DHT22;38261;54.090;13.382;2023-04-24T01:08:18;9.30;99.90
52321;DHT22;38261;54.090;13.382;2023-04-24T01:09:40;9.30;99.90
52321;DHT22;38261;54.090;13.382;2023-04-24T01:11:06;9.30;99.90
52321;DHT22;38261;54.090;13.382;2023-04-24T01:12:28;9.30;99.90
52321;DHT22;38261;54.090;13.382;2023-04-24T01:13:50;9.30;99.90
52321;DHT22;38261;54.090;13.382;2023-04-24T01:15:12;9.40;99.90
52321;DHT22;38261;54.090;13.382;2023-04-24T01:16:34;9.40;99.90
52321;DHT22;38261;54.090;13.382;2023-04-24T01:17:57;9.40;99.90
52321;DHT22;38261;54.090;13.382;2023-04-24T01:19:19;9.40;99.90
52321;DHT22;38261;54.090;13.382;2023-04-24T01:20:42;9.40;99.90
52321;DHT22;38261;54.090;13.382;2023-04-24T01:22:11;9.40;99.90
52321;DHT22;38261;54.090;13.382;2023-04-24T01:23:34;9.40;99.90
52321;DHT22;38261;54.090;13.382;2023-04-24T01:24:56;9.40;99.90
52321;DHT22;38261;54.090;13.382;2023-04-24T01:26:19;9.40;99.90
52321;DHT22;38261;54.090;13.382;2023-04-24T01:27:42;9.40;99.90
52321;DHT22;38261;54.090;13.382;2023-04-24T01:29:04;9.40;99.90
52321;DHT22;38261;54.090;13.382;2023-04-24T01:30:26;9.40;99.90
52321;DHT22;38261;54.090;13.382;2023-04-24T01:31:49;9.40;99.90
52321;DHT22;38261;54.090;13.382;2023-04-24T01:33:11;9.40;99.90
52321;DHT22;38261;54.090;13.382;2023-04-24T01:34:34;9.40;99.90
52321;DHT22;38261;54.090;13.382;2023-04-24T01:35:56;9.40;99.90
52321;DHT22;38261;54.090;13.382;2023-04-24T01:37:18;9.40;99.90
52321;DHT22;38261;54.090;13.382;2023-04-24T01:38:41;9.40;99.90
52321;DHT22;38261;54.090;13.382;2023-04-24T01:40:07;9.40;99.90
52321;DHT22;38261;54.090;13.382;2023-04-24T01:41:30;9.40;99.90
52321;DHT22;38261;54.090;13.382;2023-04-24T01:42:52;9.30;99.90
52321;DHT22;38261;54.090;13.382;2023-04-24T01:44:14;9.30;99.90
52321;DHT22;38261;54.090;13.382;2023-04-24T01:45:37;9.30;99.90
52321;DHT22;38261;54.090;13.382;2023-04-24T01:47:00;9.30;99.90
52321;DHT22;38261;54.090;13.382;2023-04-24T01:48:23;9.30;99.90
52321;DHT22;38261;54.090;13.382;2023-04-24T01:49:45;9.30;99.90
52321;DHT22;38261;54.090;13.382;2023-04-24T01:51:09;9.30;99.90
52321;DHT22;38261;54.090;13.382;2023-04-24T01:52:31;9.30;99.90
52321;DHT22;38261;54.090;13.382;2023-04-24T01:53:55;9.40;99.90
52321;DHT22;38261;54.090;13.382;2023-04-24T01:55:17;9.40;99.90
52321;DHT22;38261;54.090;13.382;2023-04-24T01:56:43;9.40;99.90
52321;DHT22;38261;54.090;13.382;2023-04-24T01:58:05;9.40;99.90
52321;DHT22;38261;54.090;13.382;2023-04-24T01:59:28;9.40;99.90
52321;DHT22;38261;54.090;13.382;2023-04-24T02:00:50;9.40;99.90
52321;DHT22;38261;54.090;13.382;2023-04-24T02:02:12;9.40;99.90
52321;DHT22;38261;54.090;13.382;2023-04-24T02:03:35;9.40;99.90
52321;DHT22;38261;54.090;13.382;2023-04-24T02:04:57;9.40;99.90
52321;DHT22;38261;54.090;13.382;2023-04-24T02:06:19;9.50;99.90
52321;DHT22;38261;54.090;13.382;2023-04-24T02:07:41;9.50;99.90
52321;DHT22;38261;54.090;13.382;2023-04-24T02:09:03;9.50;99.90
52321;DHT22;38261;54.090;13.382;2023-04-24T02:10:25;9.50;99.90
52321;DHT22;38261;54.090;13.382;2023-04-24T02:11:47;9.50;99.90
52321;DHT22;38261;54.090;13.382;2023-04-24T02:13:09;9.50;99.90
52321;DHT22;38261;54.090;13.382;2023-04-24T02:14:32;9.50;99.90
52321;DHT22;38261;54.090;13.382;2023-04-24T02:15:54;9.50;99.90
52321;DHT22;38261;54.090;13.382;2023-04-24T02:17:16;9.50;99.90
52321;DHT22;38261;54.090;13.382;2023-04-24T02:18:38;9.50;99.90
52321;DHT22;38261;54.090;13.382;2023-04-24T02:20:00;9.50;99.90
52321;DHT22;38261;54.090;13.382;2023-04-24T02:21:22;9.50;99.90
52321;DHT22;38261;54.090;13.382;2023-04-24T02:22:44;9.50;99.90
52321;DHT22;38261;54.090;13.382;2023-04-24T02:24:07;9.50;99.90
52321;DHT22;38261;54.090;13.382;2023-04-24T02:25:29;9.50;99.90
52321;DHT22;38261;54.090;13.382;2023-04-24T02:26:51;9.50;99.90
52321;DHT22;38261;54.090;13.382;2023-04-24T02:28:13;9.60;99.90
52321;DHT22;38261;54.090;13.382;2023-04-24T02:29:35;9.60;99.90
52321;DHT22;38261;54.090;13.382;2023-04-24T02:30:57;9.60;99.90
52321;DHT22;38261;54.090;13.382;2023-04-24T02:32:20;9.60;99.90
52321;DHT22;38261;54.090;13.382;2023-04-24T02:33:42;9.60;99.90
52321;DHT22;38261;54.090;13.382;2023-04-24T02:35:04;9.60;99.90
52321;DHT22;38261;54.090;13.382;2023-04-24T02:36:26;9.60;99.90
52321;DHT22;38261;54.090;13.382;2023-04-24T02:37:49;9.60;99.90
52321;DHT22;38261;54.090;13.382;2023-04-24T02:39:11;9.60;99.90
52321;DHT22;38261;54.090;13.382;2023-04-24T02:40:33;9.60;99.90
52321;DHT22;38261;54.090;13.382;2023-04-24T02:41:55;9.60;99.90
52321;DHT22;38261;54.090;13.382;2023-04-24T02:43:17;9.60;99.90
52321;DHT22;38261;54.090;13.382;2023-04-24T02:44:39;9.60;99.90
52321;DHT22;38261;54.090;13.382;2023-04-24T02:46:01;9.60;99.90
52321;DHT22;38261;54.090;13.382;2023-04-24T02:47:23;9.60;99.90
52321;DHT22;38261;54.090;13.382;2023-04-24T02:48:45;9.60;99.90
52321;DHT22;38261;54.090;13.382;2023-04-24T02:50:08;9.60;99.90
52321;DHT22;38261;54.090;13.382;2023-04-24T02:51:30;9.60;99.90
52321;DHT22;38261;54.090;13.382;2023-04-24T02:52:52;9.60;99.90
52321;DHT22;38261;54.090;13.382;2023-04-24T02:54:14;9.70;99.90
52321;DHT22;38261;54.090;13.382;2023-04-24T02:55:36;9.70;99.90
52321;DHT22;38261;54.090;13.382;2023-04-24T02:56:58;9.70;99.90
52321;DHT22;38261;54.090;13.382;2023-04-24T02:58:20;9.70;99.90
52321;DHT22;38261;54.090;13.382;2023-04-24T02:59:43;9.70;99.90
52321;DHT22;38261;54.090;13.382;2023-04-24T03:01:05;9.70;99.90
52321;DHT22;38261;54.090;13.382;2023-04-24T03:02:27;9.80;99.90
52321;DHT22;38261;54.090;13.382;2023-04-24T03:03:50;9.80;99.90
52321;DHT22;38261;54.090;13.382;2023-04-24T03:05:12;9.80;99.90
52321;DHT22;38261;54.090;13.382;2023-04-24T03:06:34;9.80;99.90
52321;DHT22;38261;54.090;13.382;2023-04-24T03:07:57;9.80;99.90
52321;DHT22;38261;54.090;13.382;2023-04-24T03:09:19;9.80;99.90
52321;DHT22;38261;54.090;13.382;2023-04-24T03:10:41;9.80;99.90
52321;DHT22;38261;54.090;13.382;2023-04-24T03:12:03;9.90;99.90
52321;DHT22;38261;54.090;13.382;2023-04-24T03:13:25;9.80;99.90
52321;DHT22;38261;54.090;13.382;2023-04-24T03:14:47;9.80;99.90
52321;DHT22;38261;54.090;13.382;2023-04-24T03:16:09;9.80;99.90
52321;DHT22;38261;54.090;13.382;2023-04-24T03:17:32;9.80;99.90
52321;DHT22;38261;54.090;13.382;2023-04-24T03:18:54;9.80;99.90
52321;DHT22;38261;54.090;13.382;2023-04-24T03:20:16;9.80;99.90
52321;DHT22;38261;54.090;13.382;2023-04-24T03:21:39;9.80;99.90
52321;DHT22;38261;54.090;13.382;2023-04-24T03:23:02;9.80;99.90
52321;DHT22;38261;54.090;13.382;2023-04-24T03:24:24;9.80;99.90
52321;DHT22;38261;54.090;13.382;2023-04-24T03:25:49;9.80;99.90
52321;DHT22;38261;54.090;13.382;2023-04-24T03:27:11;9.70;99.90
52321;DHT22;38261;54.090;13.382;2023-04-24T03:28:33;9.70;99.90
52321;DHT22;38261;54.090;13.382;2023-04-24T03:29:55;9.70;99.90
52321;DHT22;38261;54.090;13.382;2023-04-24T03:31:18;9.70;99.90
52321;DHT22;38261;54.090;13.382;2023-04-24T03:32:41;9.70;99.90
52321;DHT22;38261;54.090;13.382;2023-04-24T03:34:03;9.80;99.90
52321;DHT22;38261;54.090;13.382;2023-04-24T03:35:25;9.80;99.90
52321;DHT22;38261;54.090;13.382;2023-04-24T03:36:47;9.80;99.90
52321;DHT22;38261;54.090;13.382;2023-04-24T03:38:11;9.80;99.90
52321;DHT22;38261;54.090;13.382;2023-04-24T03:39:33;9.90;99.90
52321;DHT22;38261;54.090;13.382;2023-04-24T03:40:56;9.90;99.90
52321;DHT22;38261;54.090;13.382;2023-04-24T03:42:18;9.90;99.90
52321;DHT22;38261;54.090;13.382;2023-04-24T03:43:40;9.90;99.90
52321;DHT22;38261;54.090;13.382;2023-04-24T03:45:02;9.90;99.90
52321;DHT22;38261;54.090;13.382;2023-04-24T03:46:24;10.00;99.90
52321;DHT22;38261;54.090;13.382;2023-04-24T03:47:46;10.00;99.90
52321;DHT22;38261;54.090;13.382;2023-04-24T03:49:09;10.00;99.90
52321;DHT22;38261;54.090;13.382;2023-04-24T03:51:35;10.00;99.90
52321;DHT22;38261;54.090;13.382;2023-04-24T03:52:57;10.10;99.90
52321;DHT22;38261;54.090;13.382;2023-04-24T03:54:20;10.10;99.90
52321;DHT22;38261;54.090;13.382;2023-04-24T03:55:42;10.10;99.90
52321;DHT22;38261;54.090;13.382;2023-04-24T03:57:04;10.10;99.90
52321;DHT22;38261;54.090;13.382;2023-04-24T03:58:26;10.10;99.90
52321;DHT22;38261;54.090;13.382;2023-04-24T03:59:48;10.10;99.90
52321;DHT22;38261;54.090;13.382;2023-04-24T04:01:10;10.10;99.90
52321;DHT22;38261;54.090;13.382;2023-04-24T04:02:34;10.20;99.90
52321;DHT22;38261;54.090;13.382;2023-04-24T04:03:56;10.20;99.90
52321;DHT22;38261;54.090;13.382;2023-04-24T04:05:18;10.30;99.90
52321;DHT22;38261;54.090;13.382;2023-04-24T04:06:41;10.30;99.90
52321;DHT22;38261;54.090;13.382;2023-04-24T04:08:04;10.30;99.90
52321;DHT22;38261;54.090;13.382;2023-04-24T04:09:26;10.40;99.90
52321;DHT22;38261;54.090;13.382;2023-04-24T04:10:48;10.50;99.90
52321;DHT22;38261;54.090;13.382;2023-04-24T04:12:10;10.50;99.90
52321;DHT22;38261;54.090;13.382;2023-04-24T04:13:32;10.60;99.90
52321;DHT22;38261;54.090;13.382;2023-04-24T04:14:54;10.60;99.90
52321;DHT22;38261;54.090;13.382;2023-04-24T04:16:16;10.70;99.90
52321;DHT22;38261;54.090;13.382;2023-04-24T04:17:39;10.70;99.90
52321;DHT22;38261;54.090;13.382;2023-04-24T04:19:02;10.80;99.90
52321;DHT22;38261;54.090;13.382;2023-04-24T04:20:24;10.90;99.90
52321;DHT22;38261;54.090;13.382;2023-04-24T04:21:47;11.00;99.90
52321;DHT22;38261;54.090;13.382;2023-04-24T04:23:13;11.10;99.90
52321;DHT22;38261;54.090;13.382;2023-04-24T04:24:36;11.40;99.90
52321;DHT22;38261;54.090;13.382;2023-04-24T04:26:00;11.80;99.90
52321;DHT22;38261;54.090;13.382;2023-04-24T04:27:22;12.30;99.90
52321;DHT22;38261;54.090;13.382;2023-04-24T04:28:44;12.70;99.90
52321;DHT22;38261;54.090;13.382;2023-04-24T04:30:07;13.00;99.90
52321;DHT22;38261;54.090;13.382;2023-04-24T04:31:31;13.50;99.90
52321;DHT22;38261;54.090;13.382;2023-04-24T04:32:53;14.00;99.90
52321;DHT22;38261;54.090;13.382;2023-04-24T04:34:15;14.50;99.90
52321;DHT22;38261;54.090;13.382;2023-04-24T04:35:37;15.00;99.90
52321;DHT22;38261;54.090;13.382;2023-04-24T04:36:59;15.40;99.90
52321;DHT22;38261;54.090;13.382;2023-04-24T04:38:23;15.60;99.90
52321;DHT22;38261;54.090;13.382;2023-04-24T04:39:45;15.70;99.90
52321;DHT22;38261;54.090;13.382;2023-04-24T04:41:07;15.50;99.90
52321;DHT22;38261;54.090;13.382;2023-04-24T04:42:29;15.20;99.90
52321;DHT22;38261;54.090;13.382;2023-04-24T04:43:52;14.70;99.90
52321;DHT22;38261;54.090;13.382;2023-04-24T04:45:14;14.30;99.90
52321;DHT22;38261;54.090;13.382;2023-04-24T04:46:39;13.90;99.90
52321;DHT22;38261;54.090;13.382;2023-04-24T04:48:01;13.50;99.90
52321;DHT22;38261;54.090;13.382;2023-04-24T04:49:24;13.20;99.90
52321;DHT22;38261;54.090;13.382;2023-04-24T04:50:46;12.90;99.90
52321;DHT22;38261;54.090;13.382;2023-04-24T04:52:08;12.70;99.90
52321;DHT22;38261;54.090;13.382;2023-04-24T04:53:30;12.50;99.90
52321;DHT22;38261;54.090;13.382;2023-04-24T04:54:53;12.40;99.90
52321;DHT22;38261;54.090;13.382;2023-04-24T04:56:15;12.30;99.90
52321;DHT22;38261;54.090;13.382;2023-04-24T04:57:37;12.10;99.90
52321;DHT22;38261;54.090;13.382;2023-04-24T04:58:59;12.10;99.90
52321;DHT22;38261;54.090;13.382;2023-04-24T05:00:21;12.10;99.90
52321;DHT22;38261;54.090;13.382;2023-04-24T05:01:43;12.00;99.90
52321;DHT22;38261;54.090;13.382;2023-04-24T05:03:05;12.00;99.90
52321;DHT22;38261;54.090;13.382;2023-04-24T05:04:42;12.00;99.90
52321;DHT22;38261;54.090;13.382;2023-04-24T05:06:05;12.00;99.90
52321;DHT22;38261;54.090;13.382;2023-04-24T05:07:27;12.00;99.90
52321;DHT22;38261;54.090;13.382;2023-04-24T05:08:49;12.00;99.90
52321;DHT22;38261;54.090;13.382;2023-04-24T05:10:12;11.90;99.90
52321;DHT22;38261;54.090;13.382;2023-04-24T05:11:34;11.90;99.90
52321;DHT22;38261;54.090;13.382;2023-04-24T05:12:57;11.80;99.90
52321;DHT22;38261;54.090;13.382;2023-04-24T05:14:19;11.80;99.90
52321;DHT22;38261;54.090;13.382;2023-04-24T05:15:41;11.80;99.90
52321;DHT22;38261;54.090;13.382;2023-04-24T05:17:03;11.90;99.90
52321;DHT22;38261;54.090;13.382;2023-04-24T05:18:25;11.90;99.90
52321;DHT22;38261;54.090;13.382;2023-04-24T05:19:47;11.90;99.90
52321;DHT22;38261;54.090;13.382;2023-04-24T05:21:10;11.90;99.90
52321;DHT22;38261;54.090;13.382;2023-04-24T05:22:32;12.00;99.90
52321;DHT22;38261;54.090;13.382;2023-04-24T05:23:54;12.00;99.90
52321;DHT22;38261;54.090;13.382;2023-04-24T05:25:16;12.00;99.90
52321;DHT22;38261;54.090;13.382;2023-04-24T05:26:38;12.00;99.90
52321;DHT22;38261;54.090;13.382;2023-04-24T05:28:01;12.00;99.90
52321;DHT22;38261;54.090;13.382;2023-04-24T05:29:23;12.00;99.90
52321;DHT22;38261;54.090;13.382;2023-04-24T05:30:45;12.00;99.90
52321;DHT22;38261;54.090;13.382;2023-04-24T05:32:07;12.00;99.90
52321;DHT22;38261;54.090;13.382;2023-04-24T05:33:29;12.00;99.90
52321;DHT22;38261;54.090;13.382;2023-04-24T05:34:51;12.00;99.90
52321;DHT22;38261;54.090;13.382;2023-04-24T05:36:13;12.00;99.90
52321;DHT22;38261;54.090;13.382;2023-04-24T05:37:36;12.00;99.90
52321;DHT22;38261;54.090;13.382;2023-04-24T05:38:58;12.00;99.90
52321;DHT22;38261;54.090;13.382;2023-04-24T05:40:20;12.00;99.90
52321;DHT22;38261;54.090;13.382;2023-04-24T05:41:43;12.00;99.90
52321;DHT22;38261;54.090;13.382;2023-04-24T05:43:05;12.00;99.90
52321;DHT22;38261;54.090;13.382;2023-04-24T05:44:27;12.00;99.90
52321;DHT22;38261;54.090;13.382;2023-04-24T05:45:49;12.00;99.90
52321;DHT22;38261;54.090;13.382;2023-04-24T05:47:11;12.00;99.90
52321;DHT22;38261;54.090;13.382;2023-04-24T05:48:33;12.00;99.90
52321;DHT22;38261;54.090;13.382;2023-04-24T05:49:55;12.00;99.90
52321;DHT22;38261;54.090;13.382;2023-04-24T05:51:17;12.00;99.90
52321;DHT22;38261;54.090;13.382;2023-04-24T05:52:39;12.00;99.90
52321;DHT22;38261;54.090;13.382;2023-04-24T05:54:02;12.00;99.90
52321;DHT22;38261;54.090;13.382;2023-04-24T05:55:25;12.10;99.90
52321;DHT22;38261;54.090;13.382;2023-04-24T05:56:48;12.10;99.90
52321;DHT22;38261;54.090;13.382;2023-04-24T05:58:11;12.20;99.90
52321;DHT22;38261;54.090;13.382;2023-04-24T05:59:36;12.30;99.90
52321;DHT22;38261;54.090;13.382;2023-04-24T06:00:59;12.40;99.90
52321;DHT22;38261;54.090;13.382;2023-04-24T06:02:23;12.40;99.90
52321;DHT22;38261;54.090;13.382;2023-04-24T06:03:45;12.50;99.90
52321;DHT22;38261;54.090;13.382;2023-04-24T06:05:08;12.60;99.90
52321;DHT22;38261;54.090;13.382;2023-04-24T06:06:30;12.60;99.90
52321;DHT22;38261;54.090;13.382;2023-04-24T06:07:53;12.70;99.90
52321;DHT22;38261;54.090;13.382;2023-04-24T06:09:15;12.70;99.90
52321;DHT22;38261;54.090;13.382;2023-04-24T06:10:38;12.80;99.90
52321;DHT22;38261;54.090;13.382;2023-04-24T06:12:00;12.80;99.90
52321;DHT22;38261;54.090;13.382;2023-04-24T06:13:22;12.80;99.90
52321;DHT22;38261;54.090;13.382;2023-04-24T06:14:44;12.90;99.90
52321;DHT22;38261;54.090;13.382;2023-04-24T06:16:07;12.90;99.90
52321;DHT22;38261;54.090;13.382;2023-04-24T06:17:30;13.00;99.90
52321;DHT22;38261;54.090;13.382;2023-04-24T06:18:52;12.90;99.90
52321;DHT22;38261;54.090;13.382;2023-04-24T06:20:14;12.90;99.90
52321;DHT22;38261;54.090;13.382;2023-04-24T06:21:37;12.80;99.90
52321;DHT22;38261;54.090;13.382;2023-04-24T06:22:59;12.80;99.90
52321;DHT22;38261;54.090;13.382;2023-04-24T06:24:21;12.80;99.90
52321;DHT22;38261;54.090;13.382;2023-04-24T06:25:43;12.70;99.90
52321;DHT22;38261;54.090;13.382;2023-04-24T06:27:05;12.70;99.90
52321;DHT22;38261;54.090;13.382;2023-04-24T06:28:27;12.60;99.90
52321;DHT22;38261;54.090;13.382;2023-04-24T06:29:50;12.60;99.90
52321;DHT22;38261;54.090;13.382;2023-04-24T06:31:16;12.60;99.90
52321;DHT22;38261;54.090;13.382;2023-04-24T06:32:38;12.60;99.90
52321;DHT22;38261;54.090;13.382;2023-04-24T06:34:00;12.60;99.90
52321;DHT22;38261;54.090;13.382;2023-04-24T06:35:23;12.70;99.90
52321;DHT22;38261;54.090;13.382;2023-04-24T06:36:46;12.70;99.90
52321;DHT22;38261;54.090;13.382;2023-04-24T06:38:09;12.70;99.90
52321;DHT22;38261;54.090;13.382;2023-04-24T06:39:31;12.80;99.90
52321;DHT22;38261;54.090;13.382;2023-04-24T06:40:53;12.90;99.90
52321;DHT22;38261;54.090;13.382;2023-04-24T06:42:15;13.00;99.90
52321;DHT22;38261;54.090;13.382;2023-04-24T06:43:37;13.10;99.90
52321;DHT22;38261;54.090;13.382;2023-04-24T06:45:00;13.10;99.90
52321;DHT22;38261;54.090;13.382;2023-04-24T06:46:22;13.20;99.90
52321;DHT22;38261;54.090;13.382;2023-04-24T06:47:47;13.10;99.90
52321;DHT22;38261;54.090;13.382;2023-04-24T06:49:09;13.20;99.90
52321;DHT22;38261;54.090;13.382;2023-04-24T06:50:32;13.20;99.90
52321;DHT22;38261;54.090;13.382;2023-04-24T06:51:54;13.20;99.90
52321;DHT22;38261;54.090;13.382;2023-04-24T06:53:16;13.30;99.90
52321;DHT22;38261;54.090;13.382;2023-04-24T06:54:38;13.30;99.90
52321;DHT22;38261;54.090;13.382;2023-04-24T06:56:01;13.40;99.90
52321;DHT22;38261;54.090;13.382;2023-04-24T06:57:23;13.50;99.90
52321;DHT22;38261;54.090;13.382;2023-04-24T06:58:45;13.60;99.90
52321;DHT22;38261;54.090;13.382;2023-04-24T07:00:07;13.60;99.90
52321;DHT22;38261;54.090;13.382;2023-04-24T07:01:31;13.60;99.90
52321;DHT22;38261;54.090;13.382;2023-04-24T07:02:53;13.70;99.90
52321;DHT22;38261;54.090;13.382;2023-04-24T07:04:15;13.70;99.90
52321;DHT22;38261;54.090;13.382;2023-04-24T07:05:38;13.80;99.90
52321;DHT22;38261;54.090;13.382;2023-04-24T07:07:00;13.90;99.90
52321;DHT22;38261;54.090;13.382;2023-04-24T07:08:22;14.00;99.90
52321;DHT22;38261;54.090;13.382;2023-04-24T07:09:44;14.10;99.90
52321;DHT22;38261;54.090;13.382;2023-04-24T07:11:07;14.30;99.90
52321;DHT22;38261;54.090;13.382;2023-04-24T07:12:29;14.50;99.90
52321;DHT22;38261;54.090;13.382;2023-04-24T07:13:51;14.70;99.90
52321;DHT22;38261;54.090;13.382;2023-04-24T07:15:14;14.80;99.90
52321;DHT22;38261;54.090;13.382;2023-04-24T07:16:36;14.90;99.90
52321;DHT22;38261;54.090;13.382;2023-04-24T07:17:58;15.10;99.90
52321;DHT22;38261;54.090;13.382;2023-04-24T07:19:20;15.20;99.90
52321;DHT22;38261;54.090;13.382;2023-04-24T07:20:43;15.30;99.90
52321;DHT22;38261;54.090;13.382;2023-04-24T07:22:05;15.40;99.90
52321;DHT22;38261;54.090;13.382;2023-04-24T07:23:27;15.50;99.90
52321;DHT22;38261;54.090;13.382;2023-04-24T07:24:49;15.60;99.90
52321;DHT22;38261;54.090;13.382;2023-04-24T07:26:12;15.70;99.90
52321;DHT22;38261;54.090;13.382;2023-04-24T07:27:34;15.80;99.90
52321;DHT22;38261;54.090;13.382;2023-04-24T07:28:57;15.90;99.90
52321;DHT22;38261;54.090;13.382;2023-04-24T07:30:19;16.00;99.90
52321;DHT22;38261;54.090;13.382;2023-04-24T07:31:42;16.00;99.90
52321;DHT22;38261;54.090;13.382;2023-04-24T07:33:04;16.00;99.90
52321;DHT22;38261;54.090;13.382;2023-04-24T07:34:26;16.10;99.90
52321;DHT22;38261;54.090;13.382;2023-04-24T07:35:48;16.30;99.90
52321;DHT22;38261;54.090;13.382;2023-04-24T07:37:10;16.30;99.90
52321;DHT22;38261;54.090;13.382;2023-04-24T07:38:33;16.40;99.90
52321;DHT22;38261;54.090;13.382;2023-04-24T07:39:55;16.60;99.90
52321;DHT22;38261;54.090;13.382;2023-04-24T07:41:17;16.70;99.90
52321;DHT22;38261;54.090;13.382;2023-04-24T07:42:40;16.80;99.90
52321;DHT22;38261;54.090;13.382;2023-04-24T07:44:02;17.00;99.90
52321;DHT22;38261;54.090;13.382;2023-04-24T07:45:24;17.10;99.90
52321;DHT22;38261;54.090;13.382;2023-04-24T07:46:48;17.30;99.90
52321;DHT22;38261;54.090;13.382;2023-04-24T07:48:10;17.30;99.90
52321;DHT22;38261;54.090;13.382;2023-04-24T07:49:32;17.50;99.90
52321;DHT22;38261;54.090;13.382;2023-04-24T07:50:56;17.50;99.90
52321;DHT22;38261;54.090;13.382;2023-04-24T07:52:18;17.60;99.90
52321;DHT22;38261;54.090;13.382;2023-04-24T07:53:41;17.60;99.90
52321;DHT22;38261;54.090;13.382;2023-04-24T07:55:04;17.70;99.90
52321;DHT22;38261;54.090;13.382;2023-04-24T07:56:26;17.70;99.90
52321;DHT22;38261;54.090;13.382;2023-04-24T07:57:49;17.80;99.90
52321;DHT22;38261;54.090;13.382;2023-04-24T07:59:11;17.90;99.90
52321;DHT22;38261;54.090;13.382;2023-04-24T08:00:33;18.00;99.90
52321;DHT22;38261;54.090;13.382;2023-04-24T08:01:55;18.00;99.90
52321;DHT22;38261;54.090;13.382;2023-04-24T08:03:17;17.90;99.90
52321;DHT22;38261;54.090;13.382;2023-04-24T08:04:41;17.80;99.90
52321;DHT22;38261;54.090;13.382;2023-04-24T08:06:04;17.90;99.90
52321;DHT22;38261;54.090;13.382;2023-04-24T08:07:27;17.90;99.90
52321;DHT22;38261;54.090;13.382;2023-04-24T08:08:49;18.00;99.90
52321;DHT22;38261;54.090;13.382;2023-04-24T08:10:11;18.00;99.90
52321;DHT22;38261;54.090;13.382;2023-04-24T08:11:33;17.80;99.90
52321;DHT22;38261;54.090;13.382;2023-04-24T08:12:55;17.80;99.90
52321;DHT22;38261;54.090;13.382;2023-04-24T08:14:18;17.70;99.90
52321;DHT22;38261;54.090;13.382;2023-04-24T08:15:40;17.70;99.90
52321;DHT22;38261;54.090;13.382;2023-04-24T08:17:03;17.70;99.90
52321;DHT22;38261;54.090;13.382;2023-04-24T08:18:25;17.60;99.90
52321;DHT22;38261;54.090;13.382;2023-04-24T08:19:48;17.50;99.90
52321;DHT22;38261;54.090;13.382;2023-04-24T08:21:10;17.40;99.90
52321;DHT22;38261;54.090;13.382;2023-04-24T08:22:34;17.30;99.90
52321;DHT22;38261;54.090;13.382;2023-04-24T08:23:56;17.20;99.90
52321;DHT22;38261;54.090;13.382;2023-04-24T08:25:18;17.20;99.90
52321;DHT22;38261;54.090;13.382;2023-04-24T08:26:41;17.10;99.90
52321;DHT22;38261;54.090;13.382;2023-04-24T08:28:05;17.10;99.90
52321;DHT22;38261;54.090;13.382;2023-04-24T08:29:27;17.10;99.90
52321;DHT22;38261;54.090;13.382;2023-04-24T08:30:49;17.10;99.90
52321;DHT22;38261;54.090;13.382;2023-04-24T08:32:16;17.10;99.90
52321;DHT22;38261;54.090;13.382;2023-04-24T08:33:38;17.10;99.90
52321;DHT22;38261;54.090;13.382;2023-04-24T08:35:02;17.10;99.90
52321;DHT22;38261;54.090;13.382;2023-04-24T08:36:25;17.20;99.90
52321;DHT22;38261;54.090;13.382;2023-04-24T08:38:04;17.20;99.90